Terminal Aerodrome Forecast
Issued by NWS

Home | Current Version | Previous Version | Text Only | Print | Product List | Glossary On
Versions: 1 2 3 4 5 6 7 8 9 10 11 12 13 14 15 16 17 18 19 20 21
000
FTUS42 KTBW 201100 RRA
TAFLAL
TAF
KLAL 201141Z 2012/2112 04004KT 6SM -RA BKN008 OVC030
      TEMPO 2012/2014 4SM -RA OVC008
     FM201400 VRB04KT P6SM VCSH SCT010 OVC030
      TEMPO 2014/2016 BKN010
     FM201800 29005KT P6SM VCSH SCT015 OVC040
     FM210100 VRB03KT P6SM SCT020 BKN050=

USA.gov is the U.S. government's official web portal to all federal, state and local government web resources and services.